createdAt,value
2019-03-27T00:01:56.903Z,99183.03
2019-03-27T00:04:28.079Z,99186.88
2019-03-27T00:06:59.472Z,99179.50
2019-03-27T00:09:30.796Z,99175.86
2019-03-27T00:12:02.110Z,99178.70
2019-03-27T00:14:33.445Z,99180.02
2019-03-27T00:17:04.801Z,99176.33
2019-03-27T00:19:36.835Z,99178.17
2019-03-27T00:22:07.485Z,99181.18
2019-03-27T00:24:38.531Z,99186.84
2019-03-27T00:27:09.849Z,99184.16
2019-03-27T00:29:41.178Z,99176.51
2019-03-27T00:32:13.441Z,99172.50
2019-03-27T00:34:44.684Z,99171.17
2019-03-27T00:37:16.053Z,99182.09
2019-03-27T00:39:47.299Z,99182.09
2019-03-27T00:42:18.616Z,99172.38
2019-03-27T00:44:49.846Z,99175.90
2019-03-27T00:47:21.184Z,99170.52
2019-03-27T00:49:52.563Z,99173.66
2019-03-27T00:52:23.922Z,99171.33
2019-03-27T00:54:55.309Z,99165.17
2019-03-27T00:57:26.669Z,99160.08
2019-03-27T00:59:58.084Z,99156.41
2019-03-27T01:02:29.412Z,99154.33
2019-03-27T01:05:00.762Z,99148.78
2019-03-27T01:07:33.282Z,99151.83
2019-03-27T01:10:05.466Z,99156.05
2019-03-27T01:12:36.706Z,99160.63
2019-03-27T01:15:08.076Z,99156.42
2019-03-27T01:17:39.464Z,99159.13
2019-03-27T01:20:10.983Z,99159.03
2019-03-27T01:22:43.612Z,99159.61
2019-03-27T01:25:14.869Z,99161.16
2019-03-27T01:27:46.366Z,99155.27
2019-03-27T01:30:17.719Z,99154.63
2019-03-27T01:32:49.117Z,99153.08
2019-03-27T01:35:20.442Z,99159.09
2019-03-27T01:37:51.836Z,99159.62
2019-03-27T01:40:23.224Z,99156.80
2019-03-27T01:42:54.751Z,99154.47
2019-03-27T01:45:26.089Z,99160.09
2019-03-27T01:47:57.505Z,99160.78
2019-03-27T01:50:28.833Z,99161.10
2019-03-27T01:53:00.582Z,99158.92
2019-03-27T01:55:31.948Z,99160.98
2019-03-27T01:58:03.274Z,99159.38
2019-03-27T02:00:34.586Z,99159.38
2019-03-27T02:03:05.954Z,99163.95
2019-03-27T02:05:37.193Z,99168.19
2019-03-27T02:08:08.639Z,99166.23
2019-03-27T02:10:40.021Z,99171.23
2019-03-27T02:13:11.276Z,99171.05
2019-03-27T02:15:42.723Z,99169.58
2019-03-27T02:18:14.042Z,99178.59
2019-03-27T02:20:45.381Z,99182.27
2019-03-27T02:23:16.735Z,99170.90
2019-03-27T02:25:48.060Z,99167.83
2019-03-27T02:28:19.322Z,99163.12
2019-03-27T02:30:50.647Z,99162.56
2019-03-27T02:33:21.834Z,99164.59
2019-03-27T02:35:53.495Z,99161.41
2019-03-27T02:38:24.676Z,99165.84
2019-03-27T02:40:56.193Z,99167.42
2019-03-27T02:43:28.702Z,99166.92
2019-03-27T02:46:00.206Z,99176.20
2019-03-27T02:48:31.637Z,99167.58
2019-03-27T02:51:02.880Z,99178.96
2019-03-27T02:53:34.246Z,99175.59
2019-03-27T02:56:05.643Z,99178.24
2019-03-27T02:58:36.917Z,99179.18
2019-03-27T03:01:08.178Z,99178.03
2019-03-27T03:03:39.526Z,99175.30
2019-03-27T03:06:10.841Z,99177.80
2019-03-27T03:08:42.050Z,99172.85
2019-03-27T03:11:13.168Z,99174.72
2019-03-27T03:13:44.557Z,99176.14
2019-03-27T03:16:17.088Z,99181.28
2019-03-27T03:18:48.413Z,99176.44
2019-03-27T03:21:19.731Z,99176.70
2019-03-27T03:23:51.055Z,99183.48
2019-03-27T03:26:22.897Z,99184.53
2019-03-27T03:28:54.418Z,99184.00
2019-03-27T03:31:25.887Z,99185.25
2019-03-27T03:33:57.319Z,99183.69
2019-03-27T03:36:28.542Z,99189.31
2019-03-27T03:38:59.663Z,99190.61
2019-03-27T03:41:32.374Z,99188.15
2019-03-27T03:44:03.629Z,99195.85
2019-03-27T03:46:34.960Z,99194.59
2019-03-27T03:49:06.430Z,99194.28
2019-03-27T03:51:37.744Z,99201.90
2019-03-27T03:54:09.079Z,99200.25
2019-03-27T03:56:41.668Z,99197.29
2019-03-27T03:59:13.013Z,99202.78
2019-03-27T04:01:44.375Z,99204.08
2019-03-27T04:04:15.891Z,99204.72
2019-03-27T04:06:47.312Z,99210.50
2019-03-27T04:09:18.749Z,99210.98
2019-03-27T04:11:50.944Z,99210.45
2019-03-27T04:14:22.582Z,99215.02
2019-03-27T04:16:53.896Z,99214.97
2019-03-27T04:19:25.230Z,99210.02
2019-03-27T04:21:56.727Z,99210.36
2019-03-27T04:24:28.055Z,99208.28
2019-03-27T04:27:00.653Z,99208.60
2019-03-27T04:29:32.078Z,99206.86
2019-03-27T04:32:03.551Z,99202.13
2019-03-27T04:34:34.877Z,99200.95
2019-03-27T04:37:06.125Z,99205.70
2019-03-27T04:39:37.567Z,99205.30
2019-03-27T04:42:09.020Z,99200.56
2019-03-27T04:44:40.467Z,99205.52
2019-03-27T04:47:11.801Z,99203.50
2019-03-27T04:49:43.052Z,99207.16
2019-03-27T04:52:14.397Z,99204.50
2019-03-27T04:54:45.743Z,99205.65
2019-03-27T04:57:17.071Z,99202.37
2019-03-27T04:59:48.514Z,99203.21
2019-03-27T05:02:19.928Z,99204.12
2019-03-27T05:04:51.520Z,99203.70
2019-03-27T05:07:22.881Z,99205.33
2019-03-27T05:09:54.369Z,99208.39
2019-03-27T05:12:25.656Z,99209.09
2019-03-27T05:14:57.091Z,99221.77
2019-03-27T05:17:28.360Z,99212.00
2019-03-27T05:20:00.733Z,99215.83
2019-03-27T05:22:32.094Z,99212.64
2019-03-27T05:25:03.657Z,99210.84
2019-03-27T05:27:36.437Z,99214.83
2019-03-27T05:30:08.013Z,99212.55
2019-03-27T05:32:39.311Z,99214.16
2019-03-27T05:35:10.621Z,99217.73
2019-03-27T05:37:41.878Z,99213.70
2019-03-27T05:40:13.208Z,99201.94
2019-03-27T05:42:44.529Z,99217.11
2019-03-27T05:45:15.849Z,99218.28
2019-03-27T05:47:58.992Z,99220.59
2019-03-27T05:50:20.316Z,99220.63
2019-03-27T05:52:51.662Z,99219.28
2019-03-27T05:55:22.847Z,99223.44
2019-03-27T05:57:54.096Z,99218.54
2019-03-27T06:00:25.421Z,99215.23
2019-03-27T06:02:56.847Z,99213.92
2019-03-27T06:05:28.206Z,99219.23
2019-03-27T06:07:59.518Z,99214.71
2019-03-27T06:10:30.806Z,99208.48
2019-03-27T06:13:02.110Z,99207.50
2019-03-27T06:15:34.534Z,99203.06
2019-03-27T06:18:12.952Z,99205.16
2019-03-27T06:20:39.024Z,99205.02
2019-03-27T06:23:10.414Z,99208.75
2019-03-27T06:25:41.688Z,99206.84
2019-03-27T06:28:13.078Z,99202.12
2019-03-27T06:30:44.655Z,99215.27
2019-03-27T06:33:15.845Z,99209.13
2019-03-27T06:35:47.192Z,99209.77
2019-03-27T06:38:18.542Z,99218.78
2019-03-27T06:40:49.951Z,99214.27
2019-03-27T06:43:21.269Z,99206.97
2019-03-27T06:45:52.794Z,99211.95
2019-03-27T06:48:26.357Z,99206.41
2019-03-27T06:50:57.478Z,99208.72
2019-03-27T06:53:28.938Z,99213.34
2019-03-27T06:56:00.256Z,99209.13
2019-03-27T06:58:32.675Z,99217.06
2019-03-27T07:01:04.138Z,99214.52
2019-03-27T07:03:35.464Z,99213.75
2019-03-27T07:06:06.892Z,99214.77
2019-03-27T07:08:38.351Z,99211.98
2019-03-27T07:11:09.813Z,99218.66
2019-03-27T07:13:41.035Z,99221.83
2019-03-27T07:16:12.345Z,99223.94
2019-03-27T07:18:43.588Z,99225.05
2019-03-27T07:21:15.082Z,99227.13
2019-03-27T07:23:46.551Z,99222.13
2019-03-27T07:26:17.926Z,99220.08
2019-03-27T07:28:49.338Z,99228.58
2019-03-27T07:31:20.611Z,99233.06
2019-03-27T07:33:51.944Z,99224.44
2019-03-27T07:36:23.383Z,99229.46
2019-03-27T07:38:54.771Z,99226.74
2019-03-27T07:41:26.032Z,99225.83
2019-03-27T07:43:57.422Z,99220.44
2019-03-27T07:46:28.735Z,99227.55
2019-03-27T07:49:00.222Z,99215.34
2019-03-27T07:51:31.555Z,99222.70
2019-03-27T07:54:03.023Z,99226.84
2019-03-27T07:56:34.486Z,99229.02
2019-03-27T07:59:07.080Z,99235.22
2019-03-27T08:01:38.547Z,99221.31
2019-03-27T08:04:09.897Z,99218.39
2019-03-27T08:06:41.118Z,99224.06
2019-03-27T08:09:12.257Z,99213.31
2019-03-27T08:11:43.486Z,99215.36
2019-03-27T08:14:14.936Z,99207.13
2019-03-27T08:16:46.381Z,99209.91
2019-03-27T08:19:17.623Z,99203.39
2019-03-27T08:21:48.880Z,99201.23
2019-03-27T08:24:20.183Z,99205.98
2019-03-27T08:26:51.522Z,99210.45
2019-03-27T08:29:23.209Z,99206.99
2019-03-27T08:31:54.666Z,99208.13
2019-03-27T08:34:26.023Z,99216.59
2019-03-27T08:36:58.475Z,99205.77
2019-03-27T08:39:31.366Z,99215.31
2019-03-27T08:42:02.837Z,99209.91
2019-03-27T08:44:34.255Z,99220.02
2019-03-27T08:47:05.629Z,99221.81
2019-03-27T08:49:36.988Z,99223.34
2019-03-27T08:52:09.513Z,99212.70
2019-03-27T08:54:40.859Z,99224.91
2019-03-27T08:57:12.248Z,99212.97
2019-03-27T08:59:43.580Z,99212.98
2019-03-27T09:02:14.908Z,99219.22
2019-03-27T09:04:47.762Z,99216.17
2019-03-27T09:07:19.004Z,99206.86
2019-03-27T09:09:50.179Z,99216.57
2019-03-27T09:12:21.417Z,99212.31
2019-03-27T09:14:53.852Z,99211.48
2019-03-27T09:17:25.136Z,99206.80
2019-03-27T09:19:56.561Z,99212.45
2019-03-27T09:22:27.877Z,99217.61
2019-03-27T09:24:59.185Z,99213.77
2019-03-27T09:27:30.525Z,99229.02
2019-03-27T09:30:01.826Z,99235.80
2019-03-27T09:32:34.601Z,99225.69
2019-03-27T09:35:05.978Z,99233.81
2019-03-27T09:37:37.460Z,99235.67
2019-03-27T09:40:08.743Z,99239.00
2019-03-27T09:42:41.056Z,99230.87
2019-03-27T09:45:12.991Z,99221.36
2019-03-27T09:47:43.673Z,99231.02
2019-03-27T09:50:14.676Z,99232.38
2019-03-27T09:52:46.072Z,99226.44
2019-03-27T09:55:17.375Z,99229.77
2019-03-27T09:57:48.754Z,99229.86
2019-03-27T10:00:48.853Z,99227.30
2019-03-27T10:03:20.355Z,99227.60
2019-03-27T10:05:51.688Z,99213.74
2019-03-27T10:08:23.046Z,99210.92
2019-03-27T10:10:54.417Z,99213.94
2019-03-27T10:13:25.738Z,99216.28
2019-03-27T10:15:57.204Z,99214.41
2019-03-27T10:18:28.534Z,99210.34
2019-03-27T10:20:59.898Z,99213.30
2019-03-27T10:23:31.295Z,99211.34
2019-03-27T10:26:02.718Z,99222.27
2019-03-27T10:28:34.190Z,99220.73
2019-03-27T10:31:05.563Z,99208.63
2019-03-27T10:33:36.934Z,99207.44
2019-03-27T10:36:08.314Z,99203.09
2019-03-27T10:38:41.723Z,99206.86
2019-03-27T10:41:14.484Z,99205.66
2019-03-27T10:43:45.739Z,99202.46
2019-03-27T10:46:17.238Z,99194.24
2019-03-27T10:48:52.863Z,99199.30
2019-03-27T10:51:22.035Z,99196.84
2019-03-27T10:53:53.412Z,99194.41
2019-03-27T10:56:24.811Z,99194.77
2019-03-27T10:58:56.192Z,99186.44
2019-03-27T11:01:27.586Z,99192.75
2019-03-27T11:03:58.812Z,99191.17
2019-03-27T11:06:30.169Z,99186.55
2019-03-27T11:09:01.554Z,99187.01
2019-03-27T11:11:34.349Z,99181.31
2019-03-27T11:14:05.707Z,99178.68
2019-03-27T11:16:37.079Z,99178.02
2019-03-27T11:19:08.450Z,99171.89
2019-03-27T11:21:40.678Z,99168.84
2019-03-27T11:24:13.276Z,99173.74
2019-03-27T11:26:44.698Z,99177.77
2019-03-27T11:29:16.020Z,99176.52
2019-03-27T11:31:47.391Z,99176.48
2019-03-27T11:34:18.725Z,99183.18
2019-03-27T11:36:50.140Z,99172.02
2019-03-27T11:39:24.599Z,99170.76
2019-03-27T11:41:54.504Z,99164.78
2019-03-27T11:44:25.848Z,99170.48
2019-03-27T11:46:57.251Z,99167.00
2019-03-27T11:49:28.582Z,99169.80
2019-03-27T11:51:59.908Z,99167.36
2019-03-27T11:54:31.216Z,99172.34
2019-03-27T11:57:02.463Z,99169.14
2019-03-27T11:59:33.803Z,99176.78
2019-03-27T12:02:05.186Z,99177.27
2019-03-27T12:04:36.498Z,99175.84
2019-03-27T12:07:07.815Z,99176.63
2019-03-27T12:09:39.152Z,99188.52
2019-03-27T12:12:10.498Z,99190.50
2019-03-27T12:14:41.756Z,99197.93
2019-03-27T12:17:13.368Z,99205.66
2019-03-27T12:19:44.738Z,99213.08
2019-03-27T12:22:16.141Z,99219.42
2019-03-27T12:24:47.566Z,99225.92
2019-03-27T12:27:19.884Z,99221.84
2019-03-27T12:29:51.206Z,99226.66
2019-03-27T12:32:24.946Z,99229.72
2019-03-27T12:34:55.538Z,99234.18
2019-03-27T12:37:26.782Z,99235.02
2019-03-27T12:39:58.182Z,99233.03
2019-03-27T12:42:29.524Z,99241.89
2019-03-27T12:45:02.036Z,99241.03
2019-03-27T12:47:33.873Z,99245.20
2019-03-27T12:50:07.533Z,99246.08
2019-03-27T12:52:38.787Z,99243.47
2019-03-27T12:55:10.062Z,99248.44
2019-03-27T12:57:41.346Z,99248.58
2019-03-27T13:00:12.765Z,99259.30
2019-03-27T13:02:44.156Z,99254.02
2019-03-27T13:05:15.471Z,99264.70
2019-03-27T13:07:50.235Z,99264.86
2019-03-27T13:10:22.032Z,99264.73
2019-03-27T13:12:53.350Z,99274.21
2019-03-27T13:15:24.759Z,99267.56
2019-03-27T13:17:56.157Z,99264.39
2019-03-27T13:20:27.415Z,99263.88
2019-03-27T13:22:58.735Z,99263.16
2019-03-27T13:25:30.127Z,99267.30
2019-03-27T13:28:02.566Z,99257.85
2019-03-27T13:30:33.924Z,99263.16
2019-03-27T13:33:05.311Z,99272.14
2019-03-27T13:35:36.688Z,99270.15
2019-03-27T13:38:08.069Z,99264.98
2019-03-27T13:40:39.422Z,99271.47
2019-03-27T13:43:10.818Z,99270.46
2019-03-27T13:45:42.144Z,99268.30
2019-03-27T13:48:13.464Z,99267.66
2019-03-27T13:50:44.917Z,99270.13
2019-03-27T13:53:16.166Z,99271.78
2019-03-27T13:55:47.549Z,99273.80
2019-03-27T13:58:18.879Z,99267.33
2019-03-27T14:00:50.203Z,99275.38
2019-03-27T14:03:21.634Z,99278.88
2019-03-27T14:05:52.944Z,99275.47
2019-03-27T14:08:24.296Z,99276.49
2019-03-27T14:10:56.631Z,99273.16
2019-03-27T14:13:28.828Z,99277.74
2019-03-27T14:16:00.145Z,99277.60
2019-03-27T14:18:31.372Z,99277.60
2019-03-27T14:21:02.778Z,99277.66
2019-03-27T14:23:34.503Z,99279.94
2019-03-27T14:26:05.925Z,99284.69
2019-03-27T14:28:37.399Z,99288.98
2019-03-27T14:31:08.820Z,99288.98
2019-03-27T14:33:40.266Z,99293.38
2019-03-27T14:36:12.557Z,99295.70
2019-03-27T14:38:44.003Z,99305.31
2019-03-27T14:41:15.324Z,99306.23
2019-03-27T14:43:46.554Z,99306.02
2019-03-27T14:46:17.791Z,99307.89
2019-03-27T14:48:49.123Z,99306.00
2019-03-27T14:51:20.431Z,99312.47
2019-03-27T14:53:51.782Z,99308.00
2019-03-27T14:56:23.091Z,99306.80
2019-03-27T14:58:54.425Z,99309.17
2019-03-27T15:01:25.746Z,99307.87
2019-03-27T15:03:57.072Z,99302.28
2019-03-27T15:06:28.400Z,99311.66
2019-03-27T15:08:59.720Z,99312.00
2019-03-27T15:11:31.052Z,99303.66
2019-03-27T15:14:02.303Z,99309.77
2019-03-27T15:16:33.575Z,99318.53
2019-03-27T15:19:05.083Z,99312.77
2019-03-27T15:21:36.414Z,99316.98
2019-03-27T15:24:07.666Z,99319.45
2019-03-27T15:26:39.172Z,99321.29
2019-03-27T15:29:10.514Z,99317.95
2019-03-27T15:31:41.881Z,99328.53
2019-03-27T15:34:13.351Z,99319.48
2019-03-27T15:36:44.794Z,99324.27
2019-03-27T15:39:16.027Z,99321.45
2019-03-27T15:41:49.396Z,99323.63
2019-03-27T15:44:21.122Z,99320.76
2019-03-27T15:46:52.446Z,99327.84
2019-03-27T15:49:23.803Z,99326.27
2019-03-27T15:51:56.583Z,99326.81
2019-03-27T15:54:27.832Z,99335.41
2019-03-27T15:56:59.181Z,99338.58
2019-03-27T15:59:30.782Z,99341.17
2019-03-27T16:02:02.096Z,99337.72
2019-03-27T16:04:33.341Z,99350.05
2019-03-27T16:07:04.672Z,99347.67
2019-03-27T16:09:36.009Z,99356.94
2019-03-27T16:12:07.437Z,99353.66
2019-03-27T16:14:38.889Z,99353.66
2019-03-27T16:17:13.542Z,99355.54
2019-03-27T16:19:44.525Z,99351.80
2019-03-27T16:22:15.854Z,99353.21
2019-03-27T16:24:47.177Z,99360.00
2019-03-27T16:27:18.496Z,99371.29
2019-03-27T16:29:49.785Z,99368.69
2019-03-27T16:32:21.006Z,99371.75
2019-03-27T16:34:52.364Z,99379.16
2019-03-27T16:37:23.766Z,99381.44
2019-03-27T16:39:55.147Z,99384.77
2019-03-27T16:42:26.478Z,99396.23
2019-03-27T16:44:57.856Z,99388.42
2019-03-27T16:47:29.275Z,99402.80
2019-03-27T16:50:00.590Z,99399.91
2019-03-27T16:52:32.204Z,99397.30
2019-03-27T16:55:04.744Z,99411.81
2019-03-27T16:57:36.098Z,99410.27
2019-03-27T17:00:08.063Z,99410.41
2019-03-27T17:02:39.490Z,99419.44
2019-03-27T17:05:11.076Z,99419.06
2019-03-27T17:07:42.534Z,99414.65
2019-03-27T17:10:13.871Z,99419.03
2019-03-27T17:12:45.176Z,99426.66
2019-03-27T17:15:16.536Z,99418.52
2019-03-27T17:17:48.411Z,99424.27
2019-03-27T17:20:19.723Z,99431.98
2019-03-27T17:22:51.036Z,99435.34
2019-03-27T17:25:22.392Z,99433.85
2019-03-27T17:27:55.751Z,99440.23
2019-03-27T17:30:26.864Z,99435.75
2019-03-27T17:32:58.116Z,99437.32
2019-03-27T17:35:30.564Z,99440.52
2019-03-27T17:38:01.779Z,99434.78
2019-03-27T17:40:33.031Z,99445.94
2019-03-27T17:43:04.468Z,99441.08
2019-03-27T17:45:35.760Z,99439.80
2019-03-27T17:48:07.116Z,99439.61
2019-03-27T17:50:38.429Z,99436.98
2019-03-27T17:53:09.775Z,99442.07
2019-03-27T17:55:41.109Z,99445.75
2019-03-27T17:58:12.523Z,99445.61
2019-03-27T18:00:45.639Z,99447.70
2019-03-27T18:03:16.957Z,99445.24
2019-03-27T18:05:49.496Z,99450.17
2019-03-27T18:08:20.909Z,99447.48
2019-03-27T18:10:52.389Z,99446.23
2019-03-27T18:13:23.791Z,99447.20
2019-03-27T18:15:55.086Z,99439.39
2019-03-27T18:18:26.526Z,99446.20
2019-03-27T18:20:57.885Z,99449.41
2019-03-27T18:23:29.330Z,99440.94
2019-03-27T18:26:01.094Z,99447.66
2019-03-27T18:28:32.394Z,99447.53
2019-03-27T18:31:03.727Z,99441.01
2019-03-27T18:33:35.072Z,99441.27
2019-03-27T18:36:06.392Z,99442.30
2019-03-27T18:38:39.046Z,99444.25
2019-03-27T18:41:10.369Z,99444.03
2019-03-27T18:43:41.766Z,99443.33
2019-03-27T18:46:13.097Z,99437.36
2019-03-27T18:48:44.447Z,99441.01
2019-03-27T18:51:15.713Z,99436.91
2019-03-27T18:53:59.120Z,99438.55
2019-03-27T18:56:20.159Z,99440.94
2019-03-27T18:58:51.529Z,99449.73
2019-03-27T19:01:23.013Z,99444.66
2019-03-27T19:03:55.953Z,99443.91
2019-03-27T19:06:28.752Z,99450.42
2019-03-27T19:09:00.119Z,99452.60
2019-03-27T19:11:31.609Z,99448.21
2019-03-27T19:14:02.983Z,99446.59
2019-03-27T19:16:34.334Z,99453.98
2019-03-27T19:19:05.777Z,99450.67
2019-03-27T19:21:37.204Z,99456.43
2019-03-27T19:24:16.103Z,99464.02
2019-03-27T19:26:41.548Z,99459.70
2019-03-27T19:29:12.960Z,99472.31
2019-03-27T19:31:44.350Z,99465.00
2019-03-27T19:34:15.880Z,99466.34
2019-03-27T19:36:47.284Z,99461.58
2019-03-27T19:39:18.693Z,99464.50
2019-03-27T19:41:50.121Z,99471.70
2019-03-27T19:44:21.609Z,99466.78
2019-03-27T19:46:53.065Z,99469.36
2019-03-27T19:49:24.412Z,99473.16
2019-03-27T19:51:55.920Z,99471.75
2019-03-27T19:54:27.702Z,99484.09
2019-03-27T19:56:58.536Z,99478.73
2019-03-27T19:59:29.571Z,99484.98
2019-03-27T20:02:00.952Z,99490.72
2019-03-27T20:04:32.166Z,99493.11
2019-03-27T20:07:05.366Z,99498.28
2019-03-27T20:09:36.780Z,99502.46
2019-03-27T20:12:08.310Z,99506.65
2019-03-27T20:14:42.398Z,99516.33
2019-03-27T20:17:12.789Z,99508.45
2019-03-27T20:19:44.204Z,99516.41
2019-03-27T20:22:16.835Z,99510.44
2019-03-27T20:24:48.174Z,99521.56
2019-03-27T20:27:21.508Z,99533.42
2019-03-27T20:29:52.778Z,99528.00
2019-03-27T20:32:24.011Z,99524.77
2019-03-27T20:34:55.068Z,99527.04
2019-03-27T20:37:26.467Z,99528.70
2019-03-27T20:39:57.805Z,99527.42
2019-03-27T20:42:29.134Z,99526.67
2019-03-27T20:45:00.485Z,99531.66
2019-03-27T20:47:31.851Z,99530.48
2019-03-27T20:50:03.379Z,99537.73
2019-03-27T20:52:34.768Z,99534.19
2019-03-27T20:55:06.912Z,99541.83
2019-03-27T20:57:38.262Z,99548.50
2019-03-27T21:00:09.752Z,99550.53
2019-03-27T21:02:41.381Z,99555.41
2019-03-27T21:05:12.779Z,99556.43
2019-03-27T21:07:44.196Z,99554.75
2019-03-27T21:10:15.547Z,99555.06
2019-03-27T21:12:48.197Z,99564.26
2019-03-27T21:15:19.531Z,99565.93
2019-03-27T21:17:50.866Z,99563.98
2019-03-27T21:20:22.218Z,99567.33
2019-03-27T21:22:53.565Z,99565.45
2019-03-27T21:25:26.032Z,99566.83
2019-03-27T21:27:57.594Z,99575.47
2019-03-27T21:30:28.925Z,99573.67
2019-03-27T21:33:00.263Z,99575.41
2019-03-27T21:35:31.635Z,99567.47
2019-03-27T21:38:03.141Z,99572.48
2019-03-27T21:40:34.743Z,99581.41
2019-03-27T21:43:06.068Z,99577.70
2019-03-27T21:45:37.225Z,99579.05
2019-03-27T21:48:08.465Z,99581.84
2019-03-27T21:50:42.836Z,99591.25
2019-03-27T21:53:14.201Z,99586.73
2019-03-27T21:55:45.510Z,99593.27
2019-03-27T21:58:16.901Z,99589.58
2019-03-27T22:00:48.289Z,99593.41
2019-03-27T22:03:19.719Z,99597.47
2019-03-27T22:05:51.073Z,99602.69
2019-03-27T22:08:22.428Z,99607.78
2019-03-27T22:10:54.287Z,99610.02
2019-03-27T22:13:25.928Z,99616.70
2019-03-27T22:15:57.291Z,99608.28
2019-03-27T22:18:28.707Z,99611.73
2019-03-27T22:21:00.235Z,99612.11
2019-03-27T22:23:31.500Z,99617.07
2019-03-27T22:26:02.840Z,99627.16
2019-03-27T22:28:34.217Z,99626.55
2019-03-27T22:31:05.955Z,99633.09
2019-03-27T22:33:37.307Z,99635.22
2019-03-27T22:36:08.874Z,99642.36
2019-03-27T22:38:40.217Z,99640.95
2019-03-27T22:41:11.612Z,99643.53
2019-03-27T22:43:43.110Z,99655.05
2019-03-27T22:46:14.474Z,99659.03
2019-03-27T22:48:45.861Z,99645.80
2019-03-27T22:51:17.262Z,99652.20
2019-03-27T22:53:48.632Z,99657.64
2019-03-27T22:56:19.974Z,99660.34
2019-03-27T22:58:51.303Z,99659.31
2019-03-27T23:01:22.666Z,99657.31
2019-03-27T23:03:54.049Z,99658.16
2019-03-27T23:06:25.412Z,99664.48
2019-03-27T23:08:56.765Z,99662.70
2019-03-27T23:11:28.150Z,99663.56
2019-03-27T23:13:59.545Z,99667.18
2019-03-27T23:16:30.897Z,99664.67
2019-03-27T23:19:02.255Z,99674.40
2019-03-27T23:21:33.657Z,99664.55
2019-03-27T23:24:04.988Z,99669.20
2019-03-27T23:26:36.306Z,99670.58
2019-03-27T23:29:07.648Z,99669.58
2019-03-27T23:31:38.983Z,99677.05
2019-03-27T23:34:10.460Z,99680.31
2019-03-27T23:36:41.787Z,99679.39
2019-03-27T23:39:13.126Z,99678.65
2019-03-27T23:41:44.485Z,99679.53
2019-03-27T23:44:15.804Z,99679.97
2019-03-27T23:46:47.147Z,99690.02
2019-03-27T23:49:18.553Z,99692.40
2019-03-27T23:51:49.799Z,99689.31
2019-03-27T23:54:22.208Z,99692.53
2019-03-27T23:56:53.525Z,99692.53
2019-03-27T23:59:24.856Z,99688.92
